createdAt,value
2018-07-23T01:53:01.054Z,0.1
2018-07-23T01:55:01.195Z,0.2
2018-07-23T01:56:01.087Z,0.3
2018-07-23T01:58:01.054Z,0.4
2018-07-23T01:59:01.085Z,0.5
2018-07-23T02:00:01.225Z,0.5
2018-07-23T02:01:01.090Z,0.6
2018-07-23T02:02:01.086Z,0.7
2018-07-23T02:04:01.085Z,0.8
2018-07-23T02:05:01.233Z,0.9
2018-07-23T02:06:01.091Z,1.0
2018-07-23T02:07:01.086Z,1.1
2018-07-23T02:08:01.087Z,1.2
2018-07-23T02:09:01.054Z,1.3
2018-07-23T02:11:01.088Z,1.5
2018-07-23T02:12:01.090Z,1.6
2018-07-23T02:13:01.088Z,1.7
2018-07-23T02:14:01.089Z,1.9
2018-07-23T02:15:01.233Z,2.1
2018-07-23T02:16:01.092Z,2.3
2018-07-23T02:17:01.056Z,2.5
2018-07-23T02:18:01.090Z,2.8
2018-07-23T02:19:01.089Z,3.1
2018-07-23T02:20:01.230Z,3.5
2018-07-23T02:21:01.089Z,3.9
2018-07-23T02:22:01.092Z,4.3
2018-07-23T02:23:01.091Z,4.7
2018-07-23T02:24:01.089Z,5.3
2018-07-23T02:25:01.290Z,5.9
2018-07-23T02:26:01.093Z,6.6
2018-07-23T02:27:01.086Z,7.4
2018-07-23T02:28:01.089Z,8.3
2018-07-23T02:29:01.103Z,9.4
2018-07-23T02:30:01.280Z,10.5
2018-07-23T02:31:01.093Z,11.9
2018-07-23T02:32:01.093Z,13.3
2018-07-23T02:33:01.095Z,15.0
2018-07-23T02:34:01.093Z,16.9
2018-07-23T02:35:01.270Z,18.9
2018-07-23T02:36:01.094Z,21.3
2018-07-23T02:37:01.086Z,24.1
2018-07-23T02:38:01.096Z,27.1
2018-07-23T02:39:01.101Z,30.6
2018-07-23T02:41:01.079Z,35.1
2018-07-23T02:42:01.083Z,40.1
2018-07-23T02:43:01.080Z,45.9
2018-07-23T02:44:01.047Z,52.3
2018-07-23T02:45:01.192Z,59.5
2018-07-23T02:46:01.081Z,67.6
2018-07-23T02:47:01.093Z,76.7
2018-07-23T02:48:01.084Z,86.9
2018-07-23T02:49:01.051Z,98.4
2018-07-23T02:50:01.247Z,111.3
2018-07-23T02:51:01.085Z,125.9
2018-07-23T02:52:01.088Z,142.3
2018-07-23T02:53:01.089Z,160.9
2018-07-23T02:54:01.084Z,182.0
2018-07-23T02:55:01.226Z,205.9
2018-07-23T02:56:01.055Z,232.1
2018-07-23T02:57:01.052Z,261.3
2018-07-23T02:58:01.083Z,293.7
2018-07-23T02:59:01.086Z,329.3
2018-07-23T03:00:01.233Z,368.5
2018-07-23T03:01:01.088Z,411.3
2018-07-23T03:02:01.055Z,457.8
2018-07-23T03:03:01.085Z,508.1
2018-07-23T03:04:01.084Z,562.4
2018-07-23T03:05:01.199Z,620.7
2018-07-23T03:06:01.093Z,683.0
2018-07-23T03:07:01.055Z,749.4
2018-07-23T03:08:01.055Z,819.7
2018-07-23T03:09:01.096Z,894.1
2018-07-23T03:10:01.237Z,972.4
2018-07-23T03:11:01.061Z,1055.1
2018-07-23T03:12:01.135Z,1142.3
2018-07-23T03:13:01.092Z,1234.5
2018-07-23T03:14:01.089Z,1331.7
2018-07-23T03:15:01.203Z,1433.9
2018-07-23T03:16:01.096Z,1541.2
2018-07-23T03:17:01.127Z,1653.9
2018-07-23T03:18:01.093Z,1772.1
2018-07-23T03:19:01.094Z,1895.9
2018-07-23T03:20:01.236Z,2025.5
2018-07-23T03:21:01.100Z,2161.6
2018-07-23T03:22:01.208Z,2305.1
2018-07-23T03:23:01.062Z,2456.9
2018-07-23T03:24:01.095Z,2617.1
2018-07-23T03:26:01.054Z,2802.0
2018-07-23T03:27:01.081Z,2995.7
2018-07-23T03:28:01.085Z,3198.0
2018-07-23T03:29:01.090Z,3408.7
2018-07-23T03:30:01.227Z,3628.1
2018-07-23T03:31:01.085Z,3856.4
2018-07-23T03:32:01.055Z,4094.1
2018-07-23T03:33:01.056Z,4341.0
2018-07-23T03:34:01.109Z,4596.5
2018-07-23T03:35:01.226Z,4861.1
2018-07-23T03:36:01.085Z,5134.7
2018-07-23T03:37:01.087Z,5416.3
2018-07-23T03:38:01.084Z,5705.8
2018-07-23T03:39:01.087Z,6002.9
2018-07-23T03:40:01.226Z,6307.1
2018-07-23T03:41:01.087Z,6602.9
2018-07-23T03:42:01.085Z,6906.5
2018-07-23T03:43:01.084Z,7217.7
2018-07-23T03:44:01.085Z,7535.4
2018-07-23T03:45:01.193Z,7856.7
2018-07-23T03:46:01.090Z,8181.4
2018-07-23T03:47:01.089Z,8506.9
2018-07-23T03:48:01.085Z,8830.5
2018-07-23T03:49:01.051Z,9153.4
2018-07-23T03:50:01.326Z,9476.9
2018-07-23T03:51:01.089Z,9803.5
2018-07-23T03:52:01.085Z,10132.9
2018-07-23T03:53:01.057Z,10465.1
2018-07-23T03:54:01.097Z,10798.1
2018-07-23T03:55:01.355Z,11130.9
2018-07-23T03:56:01.089Z,11465.1
2018-07-23T03:57:01.087Z,11801.6
2018-07-23T03:58:01.087Z,12141.2
2018-07-23T03:59:01.087Z,12477.1
2018-07-23T04:00:01.297Z,12814.2
2018-07-23T04:01:01.089Z,13146.7
2018-07-23T04:02:01.061Z,13478.3
2018-07-23T04:03:01.088Z,13812.5
2018-07-23T04:04:01.152Z,14147.6
2018-07-23T04:05:01.232Z,14479.1
2018-07-23T04:06:01.089Z,14808.9
2018-07-23T04:07:01.091Z,15148.1
2018-07-23T04:08:01.089Z,15501.8
2018-07-23T04:09:01.130Z,15861.6
2018-07-23T04:10:01.310Z,16219.6
2018-07-23T04:11:01.093Z,16568.2
2018-07-23T04:12:01.060Z,16909.1
2018-07-23T04:13:01.065Z,17243.1
2018-07-23T04:14:01.119Z,17573.3
2018-07-23T04:15:01.234Z,17899.3
2018-07-23T04:16:01.095Z,18223.9
2018-07-23T04:17:01.078Z,18570.5
2018-07-23T04:18:01.089Z,18918.0
2018-07-23T04:19:01.093Z,19247.9
2018-07-23T04:20:01.244Z,19579.7
2018-07-23T04:21:01.094Z,19904.1
2018-07-23T04:22:01.097Z,20268.9
2018-07-23T04:23:01.068Z,20619.6
2018-07-23T04:24:01.101Z,20952.0
2018-07-23T04:25:01.238Z,21249.4
2018-07-23T04:27:01.084Z,21621.5
2018-07-23T04:28:01.084Z,22000.5
2018-07-23T04:29:01.082Z,22379.1
2018-07-23T04:30:01.084Z,22761.1
2018-07-23T04:31:01.223Z,23153.3
2018-07-23T04:32:01.052Z,23579.1
2018-07-23T04:33:01.115Z,24013.1
2018-07-23T04:34:01.092Z,24461.7
2018-07-23T04:35:01.054Z,24943.8
2018-07-23T04:36:01.227Z,25434.7
2018-07-23T04:37:01.094Z,25926.9
2018-07-23T04:38:01.218Z,26388.3
2018-07-23T04:39:01.086Z,26877.7
2018-07-23T04:40:01.090Z,27396.0
2018-07-23T04:41:01.264Z,27937.1
2018-07-23T04:42:01.090Z,28363.5
2018-07-23T04:43:01.127Z,28756.8
2018-07-23T04:44:01.103Z,29143.3
2018-07-23T04:45:01.090Z,29512.7
2018-07-23T04:46:01.242Z,29863.1
2018-07-23T04:47:01.091Z,30178.1
2018-07-23T04:48:01.119Z,30443.4
2018-07-23T04:49:01.089Z,30686.9
2018-07-23T04:50:01.090Z,30923.3
2018-07-23T04:51:01.199Z,31123.7
2018-07-23T04:52:01.115Z,31318.9
2018-07-23T04:53:01.091Z,31504.7
2018-07-23T04:54:01.058Z,31668.1
2018-07-23T04:55:01.095Z,31812.7
2018-07-23T04:56:01.230Z,31963.1
2018-07-23T04:57:01.163Z,32157.7
2018-07-23T04:58:01.091Z,32378.5
2018-07-23T04:59:01.122Z,32607.2
2018-07-23T05:00:01.096Z,32877.7
2018-07-23T05:01:01.241Z,33225.3
2018-07-23T05:02:01.087Z,33773.3
2018-07-23T05:03:01.068Z,34665.3
2018-07-23T05:04:01.102Z,35821.2
2018-07-23T05:05:01.096Z,37122.9
2018-07-23T05:06:01.239Z,38539.6
2018-07-23T05:07:01.103Z,39999.3
2018-07-23T05:08:01.100Z,41501.8
2018-07-23T05:09:01.066Z,42977.8
2018-07-23T05:10:01.098Z,44449.3
2018-07-23T05:11:01.244Z,45926.7
2018-07-23T05:12:01.127Z,47418.0
2018-07-23T05:14:01.090Z,48893.7
2018-07-23T05:15:01.082Z,50378.0
2018-07-23T05:16:01.257Z,51827.9
2018-07-23T05:17:01.053Z,53198.2
2018-07-23T05:18:01.053Z,54372.9
2018-07-23T05:19:01.084Z,55203.9
2018-07-23T05:20:01.087Z,55729.7
2018-07-23T05:21:01.235Z,56080.8
2018-07-23T05:22:01.052Z,56322.4
2018-07-23T05:23:01.086Z,56567.9
2018-07-23T05:24:01.092Z,56709.9
2018-07-23T05:25:01.052Z,56854.8
2018-07-23T05:26:01.226Z,57119.1
2018-07-23T05:27:01.086Z,57429.9
2018-07-23T05:28:01.086Z,57619.9
2018-07-23T05:29:01.087Z,57793.0
2018-07-23T05:30:01.098Z,58017.0
2018-07-23T05:31:01.233Z,58257.5
2018-07-23T05:32:01.123Z,58426.5
2018-07-23T05:33:01.091Z,58584.5
2018-07-23T05:34:01.092Z,58824.3
2018-07-23T05:35:01.099Z,59196.3
2018-07-23T05:36:01.231Z,59770.1
2018-07-23T05:37:01.095Z,59538.1
2018-07-23T05:38:06.108Z,59433.5
2018-07-23T05:39:01.102Z,59563.1
2018-07-23T05:40:01.094Z,59903.3
2018-07-23T05:41:01.203Z,60307.3
2018-07-23T05:42:01.096Z,60365.6
2018-07-23T05:43:01.117Z,60022.2
2018-07-23T05:44:01.095Z,60452.5
2018-07-23T05:45:01.065Z,60629.1
2018-07-23T05:46:01.250Z,60959.9
2018-07-23T05:47:01.068Z,61353.7
2018-07-23T05:48:01.067Z,61555.7
2018-07-23T05:49:01.064Z,61861.6
2018-07-23T05:50:01.096Z,62062.7
2018-07-23T05:52:01.097Z,62871.1
2018-07-23T05:53:01.099Z,63465.7
2018-07-23T05:54:01.102Z,63357.7
2018-07-23T05:55:01.106Z,63231.3
2018-07-23T05:56:01.236Z,62394.5
2018-07-23T05:57:01.099Z,62673.7
2018-07-23T05:58:01.068Z,63442.1
2018-07-23T05:59:01.066Z,63450.0
2018-07-23T06:00:01.099Z,63630.8
2018-07-23T06:02:01.067Z,63632.3
2018-07-23T06:03:01.105Z,63817.9
2018-07-23T06:08:01.107Z,63846.8
2018-07-23T06:09:01.134Z,64372.1
2018-07-23T06:10:01.127Z,64698.1
2018-07-23T06:11:01.248Z,65265.1
2018-07-23T06:13:01.107Z,64779.6
2018-07-23T06:15:01.091Z,64779.6
2018-07-23T06:27:01.097Z,65049.5
2018-07-23T06:29:01.161Z,65535.0
2018-07-23T06:30:01.128Z,65535.0
2018-07-23T06:45:01.104Z,65535.0
2018-07-23T07:00:01.159Z,65535.0
2018-07-23T07:15:01.093Z,65535.0
2018-07-23T07:30:01.100Z,65535.0
2018-07-23T07:45:01.401Z,65535.0
2018-07-23T08:00:01.151Z,65535.0
2018-07-23T08:15:01.094Z,65535.0
2018-07-23T08:30:01.358Z,65535.0
2018-07-23T08:45:01.131Z,65535.0
2018-07-23T09:00:01.083Z,65535.0
2018-07-23T09:15:01.088Z,65535.0
2018-07-23T09:30:01.300Z,65535.0
2018-07-23T09:45:01.390Z,65535.0
2018-07-23T10:00:01.086Z,65535.0
2018-07-23T10:15:01.359Z,65535.0
2018-07-23T10:30:01.368Z,65535.0
2018-07-23T10:45:01.325Z,65535.0
2018-07-23T11:00:01.325Z,65535.0
2018-07-23T11:15:01.085Z,65535.0
2018-07-23T11:30:01.217Z,65535.0
2018-07-23T11:45:01.096Z,65535.0
2018-07-23T12:00:01.226Z,65535.0
2018-07-23T12:15:01.089Z,65535.0
2018-07-23T12:30:01.100Z,65535.0
2018-07-23T12:45:01.058Z,65535.0
2018-07-23T13:00:01.231Z,65535.0
2018-07-23T13:15:01.099Z,65535.0
2018-07-23T13:30:01.299Z,65535.0
2018-07-23T13:45:01.083Z,65535.0
2018-07-23T14:00:01.253Z,65535.0
2018-07-23T14:15:01.094Z,65535.0
2018-07-23T14:30:01.097Z,65535.0
2018-07-23T14:45:01.096Z,65535.0
2018-07-23T15:00:01.083Z,65535.0
2018-07-23T15:15:01.085Z,65535.0
2018-07-23T15:30:01.153Z,65535.0
2018-07-23T15:45:01.415Z,65535.0
2018-07-23T16:00:01.298Z,65535.0
2018-07-23T16:16:01.257Z,65535.0
2018-07-23T16:24:01.091Z,65471.4
2018-07-23T16:25:01.057Z,65396.6
2018-07-23T16:26:01.084Z,65374.7
2018-07-23T16:29:01.090Z,65205.5
2018-07-23T16:30:01.087Z,64957.3
2018-07-23T16:31:01.082Z,64512.9
2018-07-23T16:32:01.055Z,63858.3
2018-07-23T16:33:01.294Z,63042.7
2018-07-23T16:34:01.090Z,62179.1
2018-07-23T16:35:01.093Z,61276.5
2018-07-23T16:36:01.055Z,60456.5
2018-07-23T16:37:01.057Z,59639.1
2018-07-23T16:38:01.263Z,58667.1
2018-07-23T16:39:01.089Z,57798.2
2018-07-23T16:40:01.062Z,56919.9
2018-07-23T16:41:01.117Z,56112.8
2018-07-23T16:42:01.061Z,55043.8
2018-07-23T16:43:01.262Z,53719.3
2018-07-23T16:44:01.068Z,52428.7
2018-07-23T16:45:01.120Z,51199.1
2018-07-23T16:46:01.058Z,50103.1
2018-07-23T16:47:01.116Z,49177.7
2018-07-23T16:48:01.204Z,48395.6
2018-07-23T16:49:01.092Z,47660.2
2018-07-23T16:50:01.088Z,46933.3
2018-07-23T16:51:01.061Z,46103.5
2018-07-23T16:52:01.062Z,45251.4
2018-07-23T16:53:01.231Z,44535.6
2018-07-23T16:54:01.073Z,43760.2
2018-07-23T16:55:01.061Z,42984.5
2018-07-23T16:56:01.060Z,42062.1
2018-07-23T16:57:01.063Z,41362.0
2018-07-23T16:58:01.306Z,40909.8
2018-07-23T16:59:01.096Z,40583.8
2018-07-23T17:00:01.144Z,40260.7
2018-07-23T17:01:01.065Z,39983.4
2018-07-23T17:02:01.095Z,39728.5
2018-07-23T17:03:01.231Z,39475.1
2018-07-23T17:05:01.047Z,39189.1
2018-07-23T17:06:01.046Z,38914.4
2018-07-23T17:07:01.141Z,38642.7
2018-07-23T17:08:01.083Z,38375.5
2018-07-23T17:09:01.190Z,38110.3
2018-07-23T17:10:01.128Z,37848.1
2018-07-23T17:11:01.136Z,37590.3
2018-07-23T17:12:01.052Z,37339.9
2018-07-23T17:13:01.087Z,37092.5
2018-07-23T17:14:01.305Z,36840.4
2018-07-23T17:15:01.055Z,36586.7
2018-07-23T17:16:01.083Z,36334.8
2018-07-23T17:17:01.082Z,36086.7
2018-07-23T17:18:01.154Z,35840.5
2018-07-23T17:19:01.481Z,35594.7
2018-07-23T17:20:01.048Z,35371.6
2018-07-23T17:21:01.051Z,35152.4
2018-07-23T17:22:01.086Z,34939.1
2018-07-23T17:23:01.084Z,34725.5
2018-07-23T17:24:01.229Z,34514.7
2018-07-23T17:25:01.083Z,34309.9
2018-07-23T17:26:01.081Z,34114.2
2018-07-23T17:27:01.083Z,33927.5
2018-07-23T17:28:01.056Z,33749.1
2018-07-23T17:29:01.235Z,33576.9
2018-07-23T17:30:01.081Z,33408.5
2018-07-23T17:31:01.085Z,33248.3
2018-07-23T17:32:01.085Z,33096.8
2018-07-23T17:33:01.119Z,32955.9
2018-07-23T17:34:01.226Z,32825.1
2018-07-23T17:35:01.058Z,32697.9
2018-07-23T17:36:01.084Z,32579.0
2018-07-23T17:37:01.053Z,32462.5
2018-07-23T17:38:01.088Z,32348.3
2018-07-23T17:39:01.261Z,32234.2
2018-07-23T17:40:01.083Z,32118.9
2018-07-23T17:41:01.084Z,31999.2
2018-07-23T17:42:01.087Z,31865.7
2018-07-23T17:43:01.084Z,31726.4
2018-07-23T17:44:01.292Z,31571.3
2018-07-23T17:45:01.199Z,31398.9
2018-07-23T17:46:01.086Z,31205.5
2018-07-23T17:47:01.087Z,30994.3
2018-07-23T17:48:01.087Z,30772.3
2018-07-23T17:49:01.231Z,30547.3
2018-07-23T17:50:01.088Z,30323.1
2018-07-23T17:51:01.089Z,30097.7
2018-07-23T17:52:01.092Z,29871.0
2018-07-23T17:53:01.087Z,29643.2
2018-07-23T17:54:01.227Z,29415.5
2018-07-23T17:55:01.150Z,29185.7
2018-07-23T17:56:01.093Z,28954.5
2018-07-23T17:57:01.093Z,28728.7
2018-07-23T17:58:01.058Z,28497.6
2018-07-23T17:59:01.364Z,28272.6
2018-07-23T18:00:01.091Z,28056.5
2018-07-23T18:01:01.096Z,27851.1
2018-07-23T18:02:01.095Z,27652.3
2018-07-23T18:03:01.091Z,27454.7
2018-07-23T18:05:01.077Z,27233.9
2018-07-23T18:06:01.047Z,27002.6
2018-07-23T18:07:01.074Z,26759.9
2018-07-23T18:08:01.044Z,26508.8
2018-07-23T18:09:01.353Z,26254.6
2018-07-23T18:10:01.117Z,25997.6
2018-07-23T18:11:01.076Z,25738.1
2018-07-23T18:12:01.088Z,25475.7
2018-07-23T18:13:01.079Z,25211.1
2018-07-23T18:14:01.220Z,24946.4
2018-07-23T18:15:01.081Z,24679.1
2018-07-23T18:16:01.047Z,24410.1
2018-07-23T18:17:01.079Z,24143.2
2018-07-23T18:18:01.080Z,23878.4
2018-07-23T18:19:01.226Z,23613.5
2018-07-23T18:20:01.081Z,23364.1
2018-07-23T18:21:01.078Z,23115.0
2018-07-23T18:22:01.078Z,22867.5
2018-07-23T18:23:01.079Z,22622.4
2018-07-23T18:24:01.216Z,22379.0
2018-07-23T18:25:01.083Z,22137.8
2018-07-23T18:26:01.078Z,21898.7
2018-07-23T18:27:01.043Z,21660.4
2018-07-23T18:28:01.075Z,21423.1
2018-07-23T18:29:01.291Z,21188.5
2018-07-23T18:30:01.082Z,20956.4
2018-07-23T18:31:01.092Z,20725.9
2018-07-23T18:32:01.084Z,20493.1
2018-07-23T18:33:01.077Z,20257.7
2018-07-23T18:34:01.280Z,20021.0
2018-07-23T18:35:01.079Z,19785.8
2018-07-23T18:36:01.080Z,19552.5
2018-07-23T18:37:01.107Z,19322.3
2018-07-23T18:38:01.166Z,19093.3
2018-07-23T18:39:01.236Z,18864.1
2018-07-23T18:40:01.084Z,18633.4
2018-07-23T18:41:01.107Z,18401.1
2018-07-23T18:42:01.048Z,18167.3
2018-07-23T18:43:01.077Z,17931.7
2018-07-23T18:44:01.216Z,17692.4
2018-07-23T18:45:01.082Z,17449.1
2018-07-23T18:46:01.051Z,17201.5
2018-07-23T18:47:01.076Z,16951.9
2018-07-23T18:48:01.146Z,16701.1
2018-07-23T18:49:01.191Z,16448.5
2018-07-23T18:50:01.079Z,16193.6
2018-07-23T18:51:01.071Z,15936.1
2018-07-23T18:52:01.098Z,15674.9
2018-07-23T18:53:01.047Z,15410.5
2018-07-23T18:54:01.186Z,15143.1
2018-07-23T18:55:01.086Z,14872.8
2018-07-23T18:56:01.049Z,14599.7
2018-07-23T18:57:01.051Z,14324.5
2018-07-23T18:58:01.046Z,14047.5
2018-07-23T18:59:01.192Z,13769.3
2018-07-23T19:00:01.143Z,13490.1
2018-07-23T19:01:01.084Z,13209.7
2018-07-23T19:02:01.086Z,12925.6
2018-07-23T19:03:01.059Z,12634.9
2018-07-23T19:04:01.190Z,12335.5
2018-07-23T19:05:01.053Z,12027.1
2018-07-23T19:06:01.057Z,11715.6
2018-07-23T19:07:01.088Z,11406.2
2018-07-23T19:08:01.094Z,11098.8
2018-07-23T19:09:01.239Z,10791.9
2018-07-23T19:10:01.055Z,10486.5
2018-07-23T19:11:01.062Z,10185.0
2018-07-23T19:12:01.053Z,9888.5
2018-07-23T19:13:01.056Z,9597.6
2018-07-23T19:14:01.263Z,9311.9
2018-07-23T19:15:01.087Z,9031.2
2018-07-23T19:16:01.055Z,8754.8
2018-07-23T19:17:01.089Z,8482.0
2018-07-23T19:18:01.089Z,8214.9
2018-07-23T19:19:01.233Z,7956.5
2018-07-23T19:20:01.054Z,7708.3
2018-07-23T19:21:01.090Z,7465.9
2018-07-23T19:22:01.054Z,7224.6
2018-07-23T19:23:01.088Z,6984.3
2018-07-23T19:24:01.198Z,6746.7
2018-07-23T19:25:01.087Z,6511.1
2018-07-23T19:26:01.055Z,6275.7
2018-07-23T19:27:01.107Z,6039.9
2018-07-23T19:28:01.059Z,5803.5
2018-07-23T19:29:01.236Z,5567.7
2018-07-23T19:30:01.055Z,5334.3
2018-07-23T19:31:01.055Z,5104.4
2018-07-23T19:32:01.056Z,4879.5
2018-07-23T19:33:01.067Z,4660.3
2018-07-23T19:34:01.235Z,4446.5
2018-07-23T19:35:01.093Z,4236.8
2018-07-23T19:36:01.091Z,4030.9
2018-07-23T19:37:01.059Z,3829.2
2018-07-23T19:38:01.093Z,3632.6
2018-07-23T19:39:01.270Z,3441.3
2018-07-23T19:40:01.088Z,3255.3
2018-07-23T19:41:01.098Z,3074.8
2018-07-23T19:42:01.181Z,2900.1
2018-07-23T19:43:01.064Z,2731.5
2018-07-23T19:44:01.233Z,2568.7
2018-07-23T19:45:01.091Z,2411.9
2018-07-23T19:46:01.095Z,2260.8
2018-07-23T19:47:01.094Z,2115.7
2018-07-23T19:48:01.128Z,1976.6
2018-07-23T19:49:01.236Z,1843.5
2018-07-23T19:50:01.067Z,1716.5
2018-07-23T19:51:01.060Z,1595.5
2018-07-23T19:52:01.087Z,1480.4
2018-07-23T19:53:01.092Z,1371.2
2018-07-23T19:54:01.202Z,1267.7
2018-07-23T19:55:01.092Z,1169.8
2018-07-23T19:56:01.074Z,1077.3
2018-07-23T19:57:01.064Z,990.1
2018-07-23T19:58:01.060Z,908.0
2018-07-23T20:00:01.142Z,828.3
2018-07-23T20:01:01.077Z,753.7
2018-07-23T20:02:01.081Z,684.1
2018-07-23T20:03:01.147Z,619.5
2018-07-23T20:04:01.256Z,559.5
2018-07-23T20:05:01.133Z,503.9
2018-07-23T20:06:01.083Z,452.7
2018-07-23T20:07:01.085Z,405.5
2018-07-23T20:08:01.081Z,362.1
2018-07-23T20:09:01.294Z,322.4
2018-07-23T20:10:01.084Z,286.2
2018-07-23T20:11:01.050Z,253.3
2018-07-23T20:12:01.051Z,223.5
2018-07-23T20:13:01.116Z,196.5
2018-07-23T20:14:01.226Z,172.2
2018-07-23T20:15:01.083Z,153.1
2018-07-23T20:16:01.051Z,135.9
2018-07-23T20:17:01.052Z,120.6
2018-07-23T20:18:01.054Z,106.9
2018-07-23T20:19:01.225Z,94.7
2018-07-23T20:20:01.085Z,83.8
2018-07-23T20:21:01.051Z,74.1
2018-07-23T20:22:01.058Z,65.5
2018-07-23T20:23:01.057Z,57.8
2018-07-23T20:24:01.232Z,51.1
2018-07-23T20:25:01.086Z,45.1
2018-07-23T20:26:01.052Z,39.8
2018-07-23T20:27:01.053Z,35.1
2018-07-23T20:28:01.085Z,31.0
2018-07-23T20:29:01.227Z,27.4
2018-07-23T20:30:01.057Z,24.2
2018-07-23T20:31:01.060Z,21.4
2018-07-23T20:32:01.095Z,18.9
2018-07-23T20:33:01.061Z,16.7
2018-07-23T20:34:01.224Z,14.8
2018-07-23T20:35:01.111Z,13.1
2018-07-23T20:36:01.091Z,11.6
2018-07-23T20:37:01.063Z,10.3
2018-07-23T20:38:01.216Z,9.1
2018-07-23T20:39:01.297Z,8.1
2018-07-23T20:40:01.177Z,7.2
2018-07-23T20:41:01.063Z,6.4
2018-07-23T20:42:01.067Z,5.7
2018-07-23T20:43:01.092Z,5.1
2018-07-23T20:44:01.242Z,4.5
2018-07-23T20:45:01.096Z,4.1
2018-07-23T20:46:01.059Z,3.7
2018-07-23T20:47:01.097Z,3.3
2018-07-23T20:48:01.092Z,2.9
2018-07-23T20:49:01.249Z,2.6
2018-07-23T20:50:01.130Z,2.3
2018-07-23T20:51:01.097Z,2.1
2018-07-23T20:52:01.103Z,1.9
2018-07-23T20:53:01.094Z,1.7
2018-07-23T20:54:01.237Z,1.6
2018-07-23T20:55:01.137Z,1.5
2018-07-23T20:56:01.096Z,1.3
2018-07-23T20:58:01.061Z,1.2
2018-07-23T20:59:01.235Z,1.1
2018-07-23T21:00:01.096Z,1.0
2018-07-23T21:01:01.103Z,0.9
2018-07-23T21:02:01.060Z,0.8
2018-07-23T21:04:01.227Z,0.7
2018-07-23T21:06:01.079Z,0.6
2018-07-23T21:07:01.051Z,0.5
2018-07-23T21:09:01.356Z,0.4
2018-07-23T21:10:01.052Z,0.3
2018-07-23T21:12:01.051Z,0.2
2018-07-23T21:13:01.052Z,0.1
